sensor_id;sensor_type;location;lat;lon;timestamp;P1;durP1;ratioP1;P2;durP2;ratioP2
9334;SDS011;4706;41.844;26.082;2023-01-19T00:00:08;19.38;;;6.65;;
9334;SDS011;4706;41.844;26.082;2023-01-19T00:02:35;24.27;;;7.68;;
9334;SDS011;4706;41.844;26.082;2023-01-19T00:05:01;20.35;;;6.53;;
9334;SDS011;4706;41.844;26.082;2023-01-19T00:07:28;19.38;;;7.13;;
9334;SDS011;4706;41.844;26.082;2023-01-19T00:09:54;19.38;;;7.22;;
9334;SDS011;4706;41.844;26.082;2023-01-19T00:12:20;22.33;;;7.57;;
9334;SDS011;4706;41.844;26.082;2023-01-19T00:14:45;20.95;;;6.30;;
9334;SDS011;4706;41.844;26.082;2023-01-19T00:17:11;21.02;;;6.45;;
9334;SDS011;4706;41.844;26.082;2023-01-19T00:19:36;19.92;;;6.47;;
9334;SDS011;4706;41.844;26.082;2023-01-19T00:22:02;24.35;;;7.30;;
9334;SDS011;4706;41.844;26.082;2023-01-19T00:24:30;17.67;;;5.80;;
9334;SDS011;4706;41.844;26.082;2023-01-19T00:26:56;19.17;;;5.53;;
9334;SDS011;4706;41.844;26.082;2023-01-19T00:29:21;16.83;;;5.50;;
9334;SDS011;4706;41.844;26.082;2023-01-19T00:31:48;23.65;;;6.00;;
9334;SDS011;4706;41.844;26.082;2023-01-19T00:34:14;23.58;;;5.40;;
9334;SDS011;4706;41.844;26.082;2023-01-19T00:36:40;20.88;;;5.93;;
9334;SDS011;4706;41.844;26.082;2023-01-19T00:39:06;17.08;;;5.30;;
9334;SDS011;4706;41.844;26.082;2023-01-19T00:41:31;25.40;;;6.65;;
9334;SDS011;4706;41.844;26.082;2023-01-19T00:44:15;21.00;;;6.43;;
9334;SDS011;4706;41.844;26.082;2023-01-19T00:46:40;14.07;;;4.68;;
9334;SDS011;4706;41.844;26.082;2023-01-19T00:49:06;22.67;;;6.47;;
9334;SDS011;4706;41.844;26.082;2023-01-19T00:51:32;20.52;;;6.72;;
9334;SDS011;4706;41.844;26.082;2023-01-19T00:53:57;20.63;;;5.47;;
9334;SDS011;4706;41.844;26.082;2023-01-19T00:56:29;20.90;;;6.07;;
9334;SDS011;4706;41.844;26.082;2023-01-19T00:58:58;16.13;;;5.32;;
9334;SDS011;4706;41.844;26.082;2023-01-19T01:01:24;21.80;;;5.60;;
9334;SDS011;4706;41.844;26.082;2023-01-19T01:03:50;19.10;;;5.32;;
9334;SDS011;4706;41.844;26.082;2023-01-19T01:06:18;18.23;;;6.25;;
9334;SDS011;4706;41.844;26.082;2023-01-19T01:08:44;18.10;;;5.22;;
9334;SDS011;4706;41.844;26.082;2023-01-19T01:11:10;23.80;;;5.90;;
9334;SDS011;4706;41.844;26.082;2023-01-19T01:13:35;20.50;;;5.70;;
9334;SDS011;4706;41.844;26.082;2023-01-19T01:16:01;14.88;;;5.38;;
9334;SDS011;4706;41.844;26.082;2023-01-19T01:18:26;22.73;;;5.72;;
9334;SDS011;4706;41.844;26.082;2023-01-19T01:20:52;20.67;;;5.55;;
9334;SDS011;4706;41.844;26.082;2023-01-19T01:23:24;25.50;;;6.70;;
9334;SDS011;4706;41.844;26.082;2023-01-19T01:25:49;19.50;;;5.22;;
9334;SDS011;4706;41.844;26.082;2023-01-19T01:28:15;22.20;;;5.82;;
9334;SDS011;4706;41.844;26.082;2023-01-19T01:30:40;23.52;;;5.75;;
9334;SDS011;4706;41.844;26.082;2023-01-19T01:33:07;23.75;;;6.18;;
9334;SDS011;4706;41.844;26.082;2023-01-19T01:35:33;18.23;;;4.97;;
9334;SDS011;4706;41.844;26.082;2023-01-19T01:37:59;23.30;;;5.40;;
9334;SDS011;4706;41.844;26.082;2023-01-19T01:40:25;19.88;;;5.68;;
9334;SDS011;4706;41.844;26.082;2023-01-19T01:42:51;22.13;;;5.80;;
9334;SDS011;4706;41.844;26.082;2023-01-19T01:45:30;20.08;;;5.35;;
9334;SDS011;4706;41.844;26.082;2023-01-19T01:48:01;22.75;;;6.05;;
9334;SDS011;4706;41.844;26.082;2023-01-19T01:50:31;16.42;;;5.43;;
9334;SDS011;4706;41.844;26.082;2023-01-19T01:55:24;18.75;;;6.13;;
9334;SDS011;4706;41.844;26.082;2023-01-19T01:57:53;20.65;;;5.57;;
9334;SDS011;4706;41.844;26.082;2023-01-19T02:00:23;23.88;;;6.05;;
9334;SDS011;4706;41.844;26.082;2023-01-19T02:02:49;24.02;;;6.32;;
9334;SDS011;4706;41.844;26.082;2023-01-19T02:07:57;22.17;;;5.10;;
9334;SDS011;4706;41.844;26.082;2023-01-19T02:10:47;20.70;;;6.10;;
9334;SDS011;4706;41.844;26.082;2023-01-19T02:13:33;18.52;;;5.68;;
9334;SDS011;4706;41.844;26.082;2023-01-19T02:16:02;17.35;;;5.20;;
9334;SDS011;4706;41.844;26.082;2023-01-19T02:18:31;20.02;;;5.85;;
9334;SDS011;4706;41.844;26.082;2023-01-19T02:26:03;25.60;;;6.03;;
9334;SDS011;4706;41.844;26.082;2023-01-19T02:28:30;20.33;;;5.90;;
9334;SDS011;4706;41.844;26.082;2023-01-19T02:30:56;20.13;;;5.63;;
9334;SDS011;4706;41.844;26.082;2023-01-19T02:33:22;19.00;;;6.22;;
9334;SDS011;4706;41.844;26.082;2023-01-19T02:35:48;24.98;;;6.63;;
9334;SDS011;4706;41.844;26.082;2023-01-19T02:38:17;22.98;;;6.10;;
9334;SDS011;4706;41.844;26.082;2023-01-19T02:40:44;20.25;;;5.35;;
9334;SDS011;4706;41.844;26.082;2023-01-19T02:43:11;24.17;;;6.13;;
9334;SDS011;4706;41.844;26.082;2023-01-19T02:45:38;21.55;;;5.40;;
9334;SDS011;4706;41.844;26.082;2023-01-19T02:48:04;27.40;;;6.53;;
9334;SDS011;4706;41.844;26.082;2023-01-19T03:03:54;17.67;;;5.40;;
9334;SDS011;4706;41.844;26.082;2023-01-19T03:09:27;25.25;;;6.70;;
9334;SDS011;4706;41.844;26.082;2023-01-19T03:12:23;21.45;;;6.18;;
9334;SDS011;4706;41.844;26.082;2023-01-19T03:15:00;24.83;;;6.28;;
9334;SDS011;4706;41.844;26.082;2023-01-19T03:17:37;27.58;;;6.82;;
9334;SDS011;4706;41.844;26.082;2023-01-19T03:20:04;20.90;;;5.68;;
9334;SDS011;4706;41.844;26.082;2023-01-19T03:22:31;26.65;;;6.25;;
9334;SDS011;4706;41.844;26.082;2023-01-19T03:24:58;23.45;;;6.43;;
9334;SDS011;4706;41.844;26.082;2023-01-19T03:27:27;26.13;;;6.38;;
9334;SDS011;4706;41.844;26.082;2023-01-19T03:29:58;22.13;;;5.57;;
9334;SDS011;4706;41.844;26.082;2023-01-19T03:32:33;22.88;;;6.13;;
9334;SDS011;4706;41.844;26.082;2023-01-19T03:35:06;23.90;;;6.80;;
9334;SDS011;4706;41.844;26.082;2023-01-19T03:37:38;24.55;;;7.35;;
9334;SDS011;4706;41.844;26.082;2023-01-19T03:40:06;22.98;;;6.30;;
9334;SDS011;4706;41.844;26.082;2023-01-19T03:42:33;26.50;;;6.95;;
9334;SDS011;4706;41.844;26.082;2023-01-19T03:45:01;27.88;;;6.45;;
9334;SDS011;4706;41.844;26.082;2023-01-19T03:47:27;21.35;;;6.35;;
9334;SDS011;4706;41.844;26.082;2023-01-19T03:49:53;23.52;;;6.22;;
9334;SDS011;4706;41.844;26.082;2023-01-19T03:52:30;20.05;;;6.15;;
9334;SDS011;4706;41.844;26.082;2023-01-19T03:55:00;23.23;;;6.65;;
9334;SDS011;4706;41.844;26.082;2023-01-19T03:57:28;23.38;;;6.35;;
9334;SDS011;4706;41.844;26.082;2023-01-19T03:59:54;25.25;;;6.50;;
9334;SDS011;4706;41.844;26.082;2023-01-19T04:02:21;23.33;;;5.78;;
9334;SDS011;4706;41.844;26.082;2023-01-19T04:04:47;29.08;;;7.50;;
9334;SDS011;4706;41.844;26.082;2023-01-19T04:07:12;24.90;;;6.35;;
9334;SDS011;4706;41.844;26.082;2023-01-19T04:09:38;21.52;;;6.82;;
9334;SDS011;4706;41.844;26.082;2023-01-19T04:12:03;20.17;;;5.75;;
9334;SDS011;4706;41.844;26.082;2023-01-19T04:14:29;22.45;;;6.53;;
9334;SDS011;4706;41.844;26.082;2023-01-19T04:16:54;21.75;;;5.95;;
9334;SDS011;4706;41.844;26.082;2023-01-19T04:19:20;22.33;;;6.03;;
9334;SDS011;4706;41.844;26.082;2023-01-19T04:21:48;25.23;;;6.40;;
9334;SDS011;4706;41.844;26.082;2023-01-19T04:24:15;20.50;;;5.22;;
9334;SDS011;4706;41.844;26.082;2023-01-19T04:26:41;17.88;;;6.32;;
9334;SDS011;4706;41.844;26.082;2023-01-19T04:29:06;15.98;;;5.93;;
9334;SDS011;4706;41.844;26.082;2023-01-19T04:31:32;18.00;;;5.70;;
9334;SDS011;4706;41.844;26.082;2023-01-19T04:33:59;19.23;;;5.72;;
9334;SDS011;4706;41.844;26.082;2023-01-19T04:36:25;22.02;;;6.20;;
9334;SDS011;4706;41.844;26.082;2023-01-19T04:38:52;18.60;;;5.90;;
9334;SDS011;4706;41.844;26.082;2023-01-19T04:41:18;19.20;;;5.95;;
9334;SDS011;4706;41.844;26.082;2023-01-19T04:43:44;21.38;;;5.40;;
9334;SDS011;4706;41.844;26.082;2023-01-19T04:46:12;17.88;;;5.85;;
9334;SDS011;4706;41.844;26.082;2023-01-19T04:48:38;24.17;;;6.38;;
9334;SDS011;4706;41.844;26.082;2023-01-19T04:51:03;21.85;;;6.00;;
9334;SDS011;4706;41.844;26.082;2023-01-19T04:53:29;21.30;;;5.10;;
9334;SDS011;4706;41.844;26.082;2023-01-19T04:55:55;21.83;;;5.53;;
9334;SDS011;4706;41.844;26.082;2023-01-19T04:58:21;21.50;;;6.60;;
9334;SDS011;4706;41.844;26.082;2023-01-19T05:00:47;22.50;;;6.13;;
9334;SDS011;4706;41.844;26.082;2023-01-19T05:03:13;21.52;;;6.22;;
9334;SDS011;4706;41.844;26.082;2023-01-19T05:05:38;20.17;;;5.97;;
9334;SDS011;4706;41.844;26.082;2023-01-19T05:08:04;21.40;;;5.82;;
9334;SDS011;4706;41.844;26.082;2023-01-19T05:10:29;19.38;;;6.03;;
9334;SDS011;4706;41.844;26.082;2023-01-19T05:12:55;23.30;;;6.30;;
9334;SDS011;4706;41.844;26.082;2023-01-19T05:15:20;21.67;;;5.93;;
9334;SDS011;4706;41.844;26.082;2023-01-19T05:17:46;26.98;;;8.05;;
9334;SDS011;4706;41.844;26.082;2023-01-19T05:20:12;21.85;;;7.75;;
9334;SDS011;4706;41.844;26.082;2023-01-19T05:22:38;25.02;;;6.82;;
9334;SDS011;4706;41.844;26.082;2023-01-19T05:25:04;21.13;;;6.80;;
9334;SDS011;4706;41.844;26.082;2023-01-19T05:27:32;26.80;;;7.25;;
9334;SDS011;4706;41.844;26.082;2023-01-19T05:29:58;27.08;;;8.15;;
9334;SDS011;4706;41.844;26.082;2023-01-19T05:32:24;22.75;;;7.20;;
9334;SDS011;4706;41.844;26.082;2023-01-19T05:34:50;21.10;;;6.80;;
9334;SDS011;4706;41.844;26.082;2023-01-19T05:37:15;25.63;;;7.18;;
9334;SDS011;4706;41.844;26.082;2023-01-19T05:39:41;20.30;;;6.20;;
9334;SDS011;4706;41.844;26.082;2023-01-19T05:42:06;21.17;;;6.10;;
9334;SDS011;4706;41.844;26.082;2023-01-19T05:44:32;27.52;;;7.32;;
9334;SDS011;4706;41.844;26.082;2023-01-19T05:46:57;20.08;;;6.63;;
9334;SDS011;4706;41.844;26.082;2023-01-19T05:49:23;28.83;;;10.32;;
9334;SDS011;4706;41.844;26.082;2023-01-19T05:51:49;23.95;;;8.30;;
9334;SDS011;4706;41.844;26.082;2023-01-19T05:54:14;27.75;;;8.32;;
9334;SDS011;4706;41.844;26.082;2023-01-19T05:56:40;20.45;;;6.38;;
9334;SDS011;4706;41.844;26.082;2023-01-19T05:59:06;20.30;;;6.22;;
9334;SDS011;4706;41.844;26.082;2023-01-19T06:01:32;17.95;;;6.28;;
9334;SDS011;4706;41.844;26.082;2023-01-19T06:04:02;22.38;;;6.40;;
9334;SDS011;4706;41.844;26.082;2023-01-19T06:06:29;22.83;;;6.88;;
9334;SDS011;4706;41.844;26.082;2023-01-19T06:08:54;19.63;;;6.70;;
9334;SDS011;4706;41.844;26.082;2023-01-19T06:11:20;23.60;;;6.75;;
9334;SDS011;4706;41.844;26.082;2023-01-19T06:13:46;21.55;;;7.63;;
9334;SDS011;4706;41.844;26.082;2023-01-19T06:16:11;18.55;;;7.35;;
9334;SDS011;4706;41.844;26.082;2023-01-19T06:18:37;22.20;;;7.35;;
9334;SDS011;4706;41.844;26.082;2023-01-19T06:21:04;25.52;;;6.63;;
9334;SDS011;4706;41.844;26.082;2023-01-19T06:23:34;22.70;;;6.35;;
9334;SDS011;4706;41.844;26.082;2023-01-19T06:25:59;19.02;;;6.30;;
9334;SDS011;4706;41.844;26.082;2023-01-19T06:28:26;20.30;;;5.70;;
9334;SDS011;4706;41.844;26.082;2023-01-19T06:30:52;24.70;;;7.47;;
9334;SDS011;4706;41.844;26.082;2023-01-19T06:33:18;30.83;;;10.13;;
9334;SDS011;4706;41.844;26.082;2023-01-19T06:35:45;17.33;;;5.88;;
9334;SDS011;4706;41.844;26.082;2023-01-19T06:38:12;23.83;;;6.53;;
9334;SDS011;4706;41.844;26.082;2023-01-19T06:40:40;17.40;;;6.05;;
9334;SDS011;4706;41.844;26.082;2023-01-19T06:43:06;15.30;;;7.03;;
9334;SDS011;4706;41.844;26.082;2023-01-19T06:45:32;23.05;;;6.78;;
9334;SDS011;4706;41.844;26.082;2023-01-19T06:47:58;13.98;;;4.93;;
9334;SDS011;4706;41.844;26.082;2023-01-19T06:50:24;22.92;;;6.05;;
9334;SDS011;4706;41.844;26.082;2023-01-19T06:52:50;25.25;;;6.25;;
9334;SDS011;4706;41.844;26.082;2023-01-19T06:55:15;26.27;;;6.45;;
9334;SDS011;4706;41.844;26.082;2023-01-19T06:57:41;23.92;;;6.03;;
9334;SDS011;4706;41.844;26.082;2023-01-19T07:00:08;22.85;;;5.22;;
9334;SDS011;4706;41.844;26.082;2023-01-19T07:02:36;17.48;;;4.78;;
9334;SDS011;4706;41.844;26.082;2023-01-19T07:05:02;20.27;;;4.68;;
9334;SDS011;4706;41.844;26.082;2023-01-19T07:07:30;18.60;;;5.40;;
9334;SDS011;4706;41.844;26.082;2023-01-19T07:09:56;17.33;;;4.70;;
9334;SDS011;4706;41.844;26.082;2023-01-19T07:12:22;25.40;;;5.38;;
9334;SDS011;4706;41.844;26.082;2023-01-19T07:14:48;18.58;;;4.75;;
9334;SDS011;4706;41.844;26.082;2023-01-19T07:17:13;25.25;;;5.68;;
9334;SDS011;4706;41.844;26.082;2023-01-19T07:19:39;19.20;;;5.25;;
9334;SDS011;4706;41.844;26.082;2023-01-19T07:22:04;21.27;;;5.65;;
9334;SDS011;4706;41.844;26.082;2023-01-19T07:24:30;17.13;;;5.35;;
9334;SDS011;4706;41.844;26.082;2023-01-19T07:26:57;20.85;;;5.90;;
9334;SDS011;4706;41.844;26.082;2023-01-19T07:29:24;20.77;;;5.88;;
9334;SDS011;4706;41.844;26.082;2023-01-19T07:31:49;21.40;;;7.10;;
9334;SDS011;4706;41.844;26.082;2023-01-19T07:34:15;24.42;;;6.45;;
9334;SDS011;4706;41.844;26.082;2023-01-19T07:36:41;29.30;;;6.32;;
9334;SDS011;4706;41.844;26.082;2023-01-19T07:39:06;19.75;;;5.90;;
9334;SDS011;4706;41.844;26.082;2023-01-19T07:41:31;18.15;;;5.45;;
9334;SDS011;4706;41.844;26.082;2023-01-19T07:43:57;17.60;;;5.63;;
9334;SDS011;4706;41.844;26.082;2023-01-19T07:46:22;22.53;;;6.30;;
9334;SDS011;4706;41.844;26.082;2023-01-19T07:48:48;15.38;;;4.88;;
9334;SDS011;4706;41.844;26.082;2023-01-19T07:51:14;19.88;;;5.07;;
9334;SDS011;4706;41.844;26.082;2023-01-19T07:53:48;19.48;;;4.90;;
9334;SDS011;4706;41.844;26.082;2023-01-19T07:56:14;22.58;;;5.28;;
9334;SDS011;4706;41.844;26.082;2023-01-19T07:58:39;19.50;;;5.05;;
9334;SDS011;4706;41.844;26.082;2023-01-19T08:01:08;21.67;;;5.60;;
9334;SDS011;4706;41.844;26.082;2023-01-19T08:03:36;17.77;;;4.63;;
9334;SDS011;4706;41.844;26.082;2023-01-19T08:06:02;18.73;;;5.60;;
9334;SDS011;4706;41.844;26.082;2023-01-19T08:08:29;17.50;;;4.88;;
9334;SDS011;4706;41.844;26.082;2023-01-19T08:10:56;21.48;;;5.88;;
9334;SDS011;4706;41.844;26.082;2023-01-19T08:13:22;16.13;;;4.40;;
9334;SDS011;4706;41.844;26.082;2023-01-19T08:15:48;19.33;;;4.93;;
9334;SDS011;4706;41.844;26.082;2023-01-19T08:18:15;15.70;;;5.15;;
9334;SDS011;4706;41.844;26.082;2023-01-19T08:20:41;18.40;;;5.00;;
9334;SDS011;4706;41.844;26.082;2023-01-19T08:23:06;14.45;;;4.78;;
9334;SDS011;4706;41.844;26.082;2023-01-19T08:25:36;18.25;;;5.55;;
9334;SDS011;4706;41.844;26.082;2023-01-19T08:28:02;16.85;;;4.90;;
9334;SDS011;4706;41.844;26.082;2023-01-19T08:30:29;16.27;;;4.57;;
9334;SDS011;4706;41.844;26.082;2023-01-19T08:32:54;16.70;;;4.72;;
9334;SDS011;4706;41.844;26.082;2023-01-19T08:35:28;18.17;;;5.85;;
9334;SDS011;4706;41.844;26.082;2023-01-19T08:37:57;13.55;;;4.63;;
9334;SDS011;4706;41.844;26.082;2023-01-19T08:40:32;17.15;;;4.90;;
9334;SDS011;4706;41.844;26.082;2023-01-19T08:43:00;12.65;;;4.05;;
9334;SDS011;4706;41.844;26.082;2023-01-19T08:45:32;13.85;;;4.63;;
9334;SDS011;4706;41.844;26.082;2023-01-19T08:48:02;14.80;;;6.50;;
9334;SDS011;4706;41.844;26.082;2023-01-19T08:50:29;17.15;;;4.25;;
9334;SDS011;4706;41.844;26.082;2023-01-19T08:52:56;13.98;;;5.10;;
9334;SDS011;4706;41.844;26.082;2023-01-19T08:55:22;14.98;;;4.50;;
9334;SDS011;4706;41.844;26.082;2023-01-19T08:57:52;10.48;;;4.00;;
9334;SDS011;4706;41.844;26.082;2023-01-19T09:00:19;15.20;;;4.18;;
9334;SDS011;4706;41.844;26.082;2023-01-19T09:02:46;13.48;;;3.88;;
9334;SDS011;4706;41.844;26.082;2023-01-19T09:05:11;15.95;;;4.47;;
9334;SDS011;4706;41.844;26.082;2023-01-19T09:07:37;13.85;;;6.07;;
9334;SDS011;4706;41.844;26.082;2023-01-19T09:10:05;16.20;;;5.47;;
9334;SDS011;4706;41.844;26.082;2023-01-19T09:12:31;17.45;;;7.03;;
9334;SDS011;4706;41.844;26.082;2023-01-19T09:14:57;17.77;;;4.85;;
9334;SDS011;4706;41.844;26.082;2023-01-19T09:17:23;16.35;;;4.88;;
9334;SDS011;4706;41.844;26.082;2023-01-19T09:19:48;16.70;;;4.15;;
9334;SDS011;4706;41.844;26.082;2023-01-19T09:22:14;16.13;;;4.00;;
9334;SDS011;4706;41.844;26.082;2023-01-19T09:24:40;12.77;;;4.13;;
9334;SDS011;4706;41.844;26.082;2023-01-19T09:27:05;12.45;;;4.60;;
9334;SDS011;4706;41.844;26.082;2023-01-19T09:29:30;16.58;;;4.30;;
9334;SDS011;4706;41.844;26.082;2023-01-19T09:31:56;14.95;;;3.40;;
9334;SDS011;4706;41.844;26.082;2023-01-19T09:34:22;21.60;;;6.88;;
9334;SDS011;4706;41.844;26.082;2023-01-19T09:36:50;12.32;;;5.40;;
9334;SDS011;4706;41.844;26.082;2023-01-19T09:39:16;16.23;;;4.25;;
9334;SDS011;4706;41.844;26.082;2023-01-19T09:41:44;13.63;;;3.58;;
9334;SDS011;4706;41.844;26.082;2023-01-19T09:44:17;15.82;;;4.45;;
9334;SDS011;4706;41.844;26.082;2023-01-19T09:46:52;13.30;;;3.83;;
9334;SDS011;4706;41.844;26.082;2023-01-19T09:49:19;13.35;;;4.35;;
9334;SDS011;4706;41.844;26.082;2023-01-19T09:51:50;13.57;;;4.45;;
9334;SDS011;4706;41.844;26.082;2023-01-19T09:57:09;9.77;;;3.35;;
9334;SDS011;4706;41.844;26.082;2023-01-19T09:59:35;10.30;;;3.75;;
9334;SDS011;4706;41.844;26.082;2023-01-19T10:02:13;11.38;;;4.10;;
9334;SDS011;4706;41.844;26.082;2023-01-19T10:05:00;10.00;;;3.30;;
9334;SDS011;4706;41.844;26.082;2023-01-19T10:10:19;11.70;;;3.78;;
9334;SDS011;4706;41.844;26.082;2023-01-19T10:18:27;11.68;;;3.95;;
9334;SDS011;4706;41.844;26.082;2023-01-19T10:26:15;8.75;;;3.25;;
9334;SDS011;4706;41.844;26.082;2023-01-19T10:28:41;8.43;;;3.20;;
9334;SDS011;4706;41.844;26.082;2023-01-19T10:31:08;10.23;;;3.17;;
9334;SDS011;4706;41.844;26.082;2023-01-19T10:33:35;11.10;;;4.18;;
9334;SDS011;4706;41.844;26.082;2023-01-19T10:36:09;11.43;;;4.10;;
9334;SDS011;4706;41.844;26.082;2023-01-19T10:38:41;11.32;;;3.80;;
9334;SDS011;4706;41.844;26.082;2023-01-19T10:41:09;9.60;;;4.10;;
9334;SDS011;4706;41.844;26.082;2023-01-19T10:43:43;11.57;;;3.47;;
9334;SDS011;4706;41.844;26.082;2023-01-19T10:46:20;9.18;;;3.65;;
9334;SDS011;4706;41.844;26.082;2023-01-19T10:48:52;11.50;;;3.22;;
9334;SDS011;4706;41.844;26.082;2023-01-19T10:51:19;9.27;;;3.38;;
9334;SDS011;4706;41.844;26.082;2023-01-19T10:54:00;10.98;;;3.30;;
9334;SDS011;4706;41.844;26.082;2023-01-19T10:58:53;8.20;;;3.05;;
9334;SDS011;4706;41.844;26.082;2023-01-19T11:01:20;17.15;;;7.30;;
9334;SDS011;4706;41.844;26.082;2023-01-19T11:03:48;13.10;;;5.50;;
9334;SDS011;4706;41.844;26.082;2023-01-19T11:08:40;8.73;;;2.92;;
9334;SDS011;4706;41.844;26.082;2023-01-19T11:11:07;8.18;;;2.58;;
9334;SDS011;4706;41.844;26.082;2023-01-19T11:13:34;6.10;;;2.55;;
9334;SDS011;4706;41.844;26.082;2023-01-19T11:16:07;5.80;;;2.70;;
9334;SDS011;4706;41.844;26.082;2023-01-19T11:18:41;9.18;;;3.42;;
9334;SDS011;4706;41.844;26.082;2023-01-19T11:21:14;7.57;;;2.50;;
9334;SDS011;4706;41.844;26.082;2023-01-19T11:26:14;7.03;;;2.40;;
9334;SDS011;4706;41.844;26.082;2023-01-19T11:28:48;6.40;;;2.50;;
9334;SDS011;4706;41.844;26.082;2023-01-19T11:31:18;8.05;;;2.83;;
9334;SDS011;4706;41.844;26.082;2023-01-19T11:33:55;6.28;;;2.10;;
9334;SDS011;4706;41.844;26.082;2023-01-19T11:36:33;11.77;;;2.50;;
9334;SDS011;4706;41.844;26.082;2023-01-19T11:41:44;8.20;;;2.95;;
9334;SDS011;4706;41.844;26.082;2023-01-19T11:44:15;10.40;;;3.00;;
9334;SDS011;4706;41.844;26.082;2023-01-19T11:46:45;6.82;;;2.67;;
9334;SDS011;4706;41.844;26.082;2023-01-19T11:49:23;6.97;;;2.40;;
9334;SDS011;4706;41.844;26.082;2023-01-19T11:51:53;4.22;;;2.35;;
9334;SDS011;4706;41.844;26.082;2023-01-19T11:54:32;6.25;;;2.40;;
9334;SDS011;4706;41.844;26.082;2023-01-19T11:57:01;8.82;;;2.38;;
9334;SDS011;4706;41.844;26.082;2023-01-19T11:59:35;10.55;;;2.88;;
9334;SDS011;4706;41.844;26.082;2023-01-19T12:02:00;5.35;;;2.33;;
9334;SDS011;4706;41.844;26.082;2023-01-19T12:04:35;7.03;;;2.25;;
9334;SDS011;4706;41.844;26.082;2023-01-19T12:07:05;9.38;;;2.90;;
9334;SDS011;4706;41.844;26.082;2023-01-19T12:12:24;5.25;;;2.75;;
9334;SDS011;4706;41.844;26.082;2023-01-19T12:17:46;5.85;;;2.00;;
9334;SDS011;4706;41.844;26.082;2023-01-19T12:20:30;7.38;;;3.72;;
9334;SDS011;4706;41.844;26.082;2023-01-19T12:25:31;9.20;;;2.80;;
9334;SDS011;4706;41.844;26.082;2023-01-19T12:28:09;5.93;;;1.92;;
9334;SDS011;4706;41.844;26.082;2023-01-19T12:30:38;4.80;;;2.72;;
9334;SDS011;4706;41.844;26.082;2023-01-19T12:33:20;7.07;;;2.25;;
9334;SDS011;4706;41.844;26.082;2023-01-19T12:43:45;5.22;;;3.05;;
9334;SDS011;4706;41.844;26.082;2023-01-19T12:46:19;5.47;;;1.60;;
9334;SDS011;4706;41.844;26.082;2023-01-19T12:48:52;8.75;;;3.17;;
9334;SDS011;4706;41.844;26.082;2023-01-19T12:51:25;7.45;;;2.20;;
9334;SDS011;4706;41.844;26.082;2023-01-19T12:53:52;2.83;;;1.73;;
9334;SDS011;4706;41.844;26.082;2023-01-19T12:56:19;4.82;;;2.08;;
9334;SDS011;4706;41.844;26.082;2023-01-19T12:58:53;4.20;;;1.92;;
9334;SDS011;4706;41.844;26.082;2023-01-19T13:01:19;5.93;;;2.30;;
9334;SDS011;4706;41.844;26.082;2023-01-19T13:04:04;5.43;;;2.10;;
9334;SDS011;4706;41.844;26.082;2023-01-19T13:09:29;3.35;;;1.35;;
9334;SDS011;4706;41.844;26.082;2023-01-19T13:12:18;7.38;;;1.70;;
9334;SDS011;4706;41.844;26.082;2023-01-19T13:14:49;3.28;;;1.75;;
9334;SDS011;4706;41.844;26.082;2023-01-19T13:17:39;5.07;;;2.05;;
9334;SDS011;4706;41.844;26.082;2023-01-19T13:25:35;4.18;;;2.15;;
9334;SDS011;4706;41.844;26.082;2023-01-19T13:28:01;5.22;;;1.92;;
9334;SDS011;4706;41.844;26.082;2023-01-19T13:30:31;10.02;;;2.50;;
9334;SDS011;4706;41.844;26.082;2023-01-19T13:33:03;8.05;;;2.80;;
9334;SDS011;4706;41.844;26.082;2023-01-19T13:35:37;7.80;;;3.05;;
9334;SDS011;4706;41.844;26.082;2023-01-19T13:38:03;14.05;;;2.95;;
9334;SDS011;4706;41.844;26.082;2023-01-19T13:40:35;8.60;;;2.50;;
9334;SDS011;4706;41.844;26.082;2023-01-19T13:43:10;7.40;;;2.20;;
9334;SDS011;4706;41.844;26.082;2023-01-19T13:45:46;7.88;;;2.17;;
9334;SDS011;4706;41.844;26.082;2023-01-19T13:48:16;6.10;;;1.70;;
9334;SDS011;4706;41.844;26.082;2023-01-19T13:50:54;3.75;;;1.33;;
9334;SDS011;4706;41.844;26.082;2023-01-19T13:53:24;3.90;;;1.70;;
9334;SDS011;4706;41.844;26.082;2023-01-19T13:56:07;3.75;;;1.67;;
9334;SDS011;4706;41.844;26.082;2023-01-19T13:58:39;5.30;;;2.13;;
9334;SDS011;4706;41.844;26.082;2023-01-19T14:01:05;4.28;;;2.03;;
9334;SDS011;4706;41.844;26.082;2023-01-19T14:03:31;4.65;;;2.10;;
9334;SDS011;4706;41.844;26.082;2023-01-19T14:05:57;5.93;;;2.20;;
9334;SDS011;4706;41.844;26.082;2023-01-19T14:08:22;4.90;;;1.77;;
9334;SDS011;4706;41.844;26.082;2023-01-19T14:13:19;5.10;;;2.47;;
9334;SDS011;4706;41.844;26.082;2023-01-19T14:15:51;5.35;;;2.47;;
9334;SDS011;4706;41.844;26.082;2023-01-19T14:20:55;7.70;;;1.88;;
9334;SDS011;4706;41.844;26.082;2023-01-19T14:29:23;5.85;;;2.60;;
9334;SDS011;4706;41.844;26.082;2023-01-19T14:36:54;7.38;;;3.00;;
9334;SDS011;4706;41.844;26.082;2023-01-19T14:39:21;5.97;;;2.65;;
9334;SDS011;4706;41.844;26.082;2023-01-19T14:41:49;6.78;;;2.25;;
9334;SDS011;4706;41.844;26.082;2023-01-19T14:44:38;4.72;;;2.67;;
9334;SDS011;4706;41.844;26.082;2023-01-19T14:47:04;8.20;;;2.75;;
9334;SDS011;4706;41.844;26.082;2023-01-19T14:49:32;4.95;;;2.45;;
9334;SDS011;4706;41.844;26.082;2023-01-19T14:52:01;6.03;;;3.65;;
9334;SDS011;4706;41.844;26.082;2023-01-19T14:54:37;6.35;;;2.75;;
9334;SDS011;4706;41.844;26.082;2023-01-19T14:57:07;7.47;;;2.03;;
9334;SDS011;4706;41.844;26.082;2023-01-19T14:59:35;5.47;;;2.40;;
9334;SDS011;4706;41.844;26.082;2023-01-19T15:02:00;5.10;;;2.65;;
9334;SDS011;4706;41.844;26.082;2023-01-19T15:04:26;6.43;;;2.17;;
9334;SDS011;4706;41.844;26.082;2023-01-19T15:06:51;4.07;;;2.20;;
9334;SDS011;4706;41.844;26.082;2023-01-19T15:09:19;9.32;;;2.63;;
9334;SDS011;4706;41.844;26.082;2023-01-19T15:11:45;4.13;;;2.17;;
9334;SDS011;4706;41.844;26.082;2023-01-19T15:14:13;6.60;;;3.00;;
9334;SDS011;4706;41.844;26.082;2023-01-19T15:16:40;7.05;;;5.20;;
9334;SDS011;4706;41.844;26.082;2023-01-19T15:19:12;5.82;;;3.72;;
9334;SDS011;4706;41.844;26.082;2023-01-19T15:21:40;6.53;;;2.60;;
9334;SDS011;4706;41.844;26.082;2023-01-19T15:24:09;11.07;;;2.70;;
9334;SDS011;4706;41.844;26.082;2023-01-19T15:26:35;7.53;;;3.35;;
9334;SDS011;4706;41.844;26.082;2023-01-19T15:29:08;7.97;;;3.42;;
9334;SDS011;4706;41.844;26.082;2023-01-19T15:31:47;8.75;;;2.67;;
9334;SDS011;4706;41.844;26.082;2023-01-19T15:34:13;9.02;;;3.47;;
9334;SDS011;4706;41.844;26.082;2023-01-19T15:36:39;7.53;;;2.70;;
9334;SDS011;4706;41.844;26.082;2023-01-19T15:39:05;8.32;;;3.10;;
9334;SDS011;4706;41.844;26.082;2023-01-19T15:41:31;9.38;;;3.70;;
9334;SDS011;4706;41.844;26.082;2023-01-19T15:43:57;11.80;;;2.80;;
9334;SDS011;4706;41.844;26.082;2023-01-19T15:46:23;5.78;;;2.35;;
9334;SDS011;4706;41.844;26.082;2023-01-19T15:48:50;6.50;;;2.83;;
9334;SDS011;4706;41.844;26.082;2023-01-19T15:51:17;8.63;;;3.75;;
9334;SDS011;4706;41.844;26.082;2023-01-19T15:53:45;16.75;;;9.73;;
9334;SDS011;4706;41.844;26.082;2023-01-19T15:56:17;19.75;;;12.02;;
9334;SDS011;4706;41.844;26.082;2023-01-19T15:58:46;13.85;;;7.78;;
9334;SDS011;4706;41.844;26.082;2023-01-19T16:01:12;17.90;;;11.57;;
9334;SDS011;4706;41.844;26.082;2023-01-19T16:03:39;14.93;;;9.52;;
9334;SDS011;4706;41.844;26.082;2023-01-19T16:06:05;19.33;;;13.60;;
9334;SDS011;4706;41.844;26.082;2023-01-19T16:08:31;22.65;;;14.50;;
9334;SDS011;4706;41.844;26.082;2023-01-19T16:10:56;15.68;;;8.88;;
9334;SDS011;4706;41.844;26.082;2023-01-19T16:13:26;14.18;;;8.38;;
9334;SDS011;4706;41.844;26.082;2023-01-19T16:15:54;19.35;;;10.98;;
9334;SDS011;4706;41.844;26.082;2023-01-19T16:18:19;11.77;;;6.32;;
9334;SDS011;4706;41.844;26.082;2023-01-19T16:20:44;12.35;;;6.47;;
9334;SDS011;4706;41.844;26.082;2023-01-19T16:23:10;12.80;;;5.40;;
9334;SDS011;4706;41.844;26.082;2023-01-19T16:25:35;12.85;;;5.38;;
9334;SDS011;4706;41.844;26.082;2023-01-19T16:28:01;10.68;;;5.13;;
9334;SDS011;4706;41.844;26.082;2023-01-19T16:30:26;11.15;;;4.95;;